Time;durP1;ratioP1;P1;durP2;ratioP2;P2;SDS_P1;SDS_P2;PMS_P1;PMS_P2;Temp;Humidity;BMP_temperature;BMP_pressure;BME280_temperature;BME280_humidity;BME280_pressure;Samples;Min_cycle;Max_cycle;Signal;HPM_P1;HPM_P2
2023/10/30 00:02:08;;;;;;;0.87;0.47;;;;;;;-143.84;92.24;45085.25;5110747;28;21004;-55
2023/10/30 00:04:35;;;;;;;1.07;0.70;;;;;;;-143.84;92.29;45062.41;5110485;28;20430;-55
2023/10/30 00:07:03;;;;;;;3.40;0.83;;;;;;;-143.84;92.42;45089.06;5110299;28;20508;-55
2023/10/30 00:09:30;;;;;;;0.80;0.40;;;;;;;-143.84;92.48;45085.25;5110589;28;20489;-55
2023/10/30 00:11:57;;;;;;;0.90;0.70;;;;;;;-143.84;92.37;45068.13;5110660;28;20761;-60
2023/10/30 00:14:24;;;;;;;0.80;0.47;;;;;;;-143.84;92.31;45071.91;5110894;28;20930;-59
2023/10/30 00:16:53;;;;;;;0.90;0.47;;;;;;;-143.84;92.40;45075.72;5110579;28;20997;-60
2023/10/30 00:19:20;;;;;;;0.80;0.50;;;;;;;-143.84;92.17;45071.91;5110546;28;20442;-60
2023/10/30 00:21:47;;;;;;;0.90;0.70;;;;;;;-143.84;92.34;45081.44;5110804;28;20515;-60
2023/10/30 00:24:14;;;;;;;1.77;0.73;;;;;;;-143.84;92.38;45083.34;5110592;28;20504;-60
2023/10/30 00:26:42;;;;;;;0.80;0.40;;;;;;;-143.84;92.51;45071.91;5110250;28;20491;-60
2023/10/30 00:29:09;;;;;;;0.80;0.40;;;;;;;-143.84;92.53;45102.38;5110342;28;20475;-60
2023/10/30 00:31:37;;;;;;;0.80;0.50;;;;;;;-143.84;92.50;45071.91;5110617;28;20534;-60
2023/10/30 00:34:09;;;;;;;0.90;0.73;;;;;;;-143.84;92.34;45102.38;5109109;28;20459;-60
2023/10/30 00:36:37;;;;;;;0.93;0.70;;;;;;;-143.84;92.44;45090.97;5109967;28;20538;-60
2023/10/30 00:39:04;;;;;;;0.80;0.50;;;;;;;-143.84;92.43;45089.06;5110086;28;20431;-60
2023/10/30 00:41:32;;;;;;;0.80;0.50;;;;;;;-143.84;92.56;45098.56;5110183;28;20493;-60
2023/10/30 00:43:59;;;;;;;0.80;0.47;;;;;;;-143.84;92.64;45060.50;5110363;28;20527;-60
2023/10/30 00:46:26;;;;;;;1.33;1.23;;;;;;;-143.84;92.75;45096.66;5110223;28;20497;-60
2023/10/30 00:48:53;;;;;;;0.80;0.43;;;;;;;-143.84;92.84;45087.16;5110152;28;20490;-60
2023/10/30 00:51:22;;;;;;;0.80;0.43;;;;;;;-143.84;92.74;45075.72;5110038;28;20500;-60
2023/10/30 00:53:49;;;;;;;0.93;0.80;;;;;;;-143.84;92.85;45108.09;5109872;28;20964;-60
2023/10/30 00:56:16;;;;;;;0.90;0.60;;;;;;;-143.84;92.84;45108.09;5109997;28;21245;-60
2023/10/30 00:58:46;;;;;;;0.80;0.47;;;;;;;-143.84;92.94;45081.44;5109893;28;20508;-60
2023/10/30 01:01:16;;;;;;;0.80;0.50;;;;;;;-143.84;93.13;45081.44;5109997;28;20492;-52
2023/10/30 01:03:45;;;;;;;0.80;0.43;;;;;;;-143.84;93.05;45071.91;5109659;28;20447;-52
2023/10/30 01:06:13;;;;;;;0.80;0.50;;;;;;;-143.84;93.41;45092.88;5109392;28;20955;-51
2023/10/30 01:08:41;;;;;;;0.80;0.60;;;;;;;-143.84;93.50;45098.56;5109465;28;20540;-53
2023/10/30 01:11:09;;;;;;;0.90;0.60;;;;;;;-143.84;93.40;45092.88;5109667;28;20455;-52
2023/10/30 01:13:36;;;;;;;1.23;0.67;;;;;;;-143.84;93.61;45108.09;5109646;28;20538;-51
2023/10/30 01:16:05;;;;;;;0.90;0.60;;;;;;;-143.84;93.68;45083.34;5109605;28;20446;-52
2023/10/30 01:18:32;;;;;;;0.80;0.40;;;;;;;-143.84;93.68;45083.34;5109707;28;20450;-52
2023/10/30 01:20:59;;;;;;;0.80;0.40;;;;;;;-143.84;93.89;45079.53;5110024;28;20492;-52
2023/10/30 01:23:26;;;;;;;0.93;0.77;;;;;;;-143.84;93.95;45083.34;5109246;28;20492;-52
2023/10/30 01:25:53;;;;;;;0.80;0.40;;;;;;;-143.84;94.01;45098.56;5109481;28;20496;-52
2023/10/30 01:28:21;;;;;;;0.80;0.40;;;;;;;-143.84;94.00;45106.19;5109439;28;20443;-52
2023/10/30 01:30:48;;;;;;;0.83;0.40;;;;;;;-143.84;93.79;45115.72;5109414;28;21354;-52
2023/10/30 01:33:15;;;;;;;0.90;0.50;;;;;;;-143.84;93.91;45089.06;5109265;28;21331;-52
2023/10/30 01:35:42;;;;;;;0.90;0.70;;;;;;;-143.84;93.67;45098.56;5108983;28;21391;-52
2023/10/30 01:38:09;;;;;;;1.10;0.50;;;;;;;-143.84;93.46;45081.44;5109002;28;21323;-52
2023/10/30 01:40:36;;;;;;;1.43;0.50;;;;;;;-143.84;93.66;45096.66;5109084;28;20447;-51
2023/10/30 01:43:10;;;;;;;0.80;0.40;;;;;;;-143.84;93.81;45066.22;5109087;28;20446;-52
2023/10/30 01:45:37;;;;;;;1.10;0.63;;;;;;;-143.84;93.67;45094.78;5108410;28;20458;-52
2023/10/30 01:48:04;;;;;;;0.80;0.40;;;;;;;-143.84;93.65;45096.66;5109033;28;20498;-52
2023/10/30 01:50:32;;;;;;;1.33;0.83;;;;;;;-143.84;93.63;45127.13;5109054;28;20520;-52
2023/10/30 01:53:00;;;;;;;0.80;0.40;;;;;;;-143.84;93.77;45058.59;5109247;28;20508;-52
2023/10/30 01:55:27;;;;;;;0.90;0.63;;;;;;;-143.84;93.88;45087.16;5109090;28;20442;-52
2023/10/30 01:57:54;;;;;;;0.80;0.40;;;;;;;-143.84;94.00;45087.16;5109478;28;20503;-55
2023/10/30 02:00:23;;;;;;;1.30;0.50;;;;;;;-143.84;94.04;45079.53;5109282;28;20450;-55
2023/10/30 02:02:52;;;;;;;0.80;0.60;;;;;;;-143.84;94.12;45071.91;5108523;28;20439;-56
2023/10/30 02:05:19;;;;;;;0.80;0.43;;;;;;;-143.84;94.04;45068.13;5108233;28;20439;-56
2023/10/30 02:07:46;;;;;;;0.90;0.57;;;;;;;-143.84;94.08;45083.34;5108647;28;20442;-55
2023/10/30 02:10:13;;;;;;;0.87;0.57;;;;;;;-143.84;93.83;45100.47;5109400;28;20486;-55
2023/10/30 02:12:43;;;;;;;0.90;0.60;;;;;;;-143.84;93.94;45090.97;5108886;28;20978;-56
2023/10/30 02:15:10;;;;;;;0.80;0.43;;;;;;;-143.84;93.88;45083.34;5108586;28;20522;-55
2023/10/30 02:17:39;;;;;;;0.90;0.60;;;;;;;-143.84;93.66;45110.00;5108800;28;20438;-55
2023/10/30 02:20:07;;;;;;;0.80;0.40;;;;;;;-143.84;93.91;45102.38;5108596;28;20439;-56
2023/10/30 02:22:34;;;;;;;0.80;0.40;;;;;;;-143.84;94.11;45090.97;5108805;28;20873;-55
2023/10/30 02:25:01;;;;;;;0.80;0.40;;;;;;;-143.84;94.16;45079.53;5108909;28;20540;-56
2023/10/30 02:27:29;;;;;;;1.67;0.57;;;;;;;-143.84;94.39;45094.78;5108887;28;20496;-56
2023/10/30 02:29:56;;;;;;;0.80;0.40;;;;;;;-143.84;94.39;45090.97;5108746;28;20531;-56
2023/10/30 02:32:24;;;;;;;0.80;0.40;;;;;;;-143.84;94.28;45081.44;5108812;28;20500;-56
2023/10/30 02:34:51;;;;;;;1.20;0.60;;;;;;;-143.84;94.08;45115.72;5108577;28;20511;-56
2023/10/30 02:37:18;;;;;;;0.80;0.40;;;;;;;-143.84;94.08;45087.16;5108747;28;20431;-55
2023/10/30 02:39:45;;;;;;;0.80;0.57;;;;;;;-143.84;94.23;45079.53;5108812;28;21202;-56
2023/10/30 02:42:12;;;;;;;0.80;0.43;;;;;;;-143.84;94.29;45087.16;5108822;28;20449;-56
2023/10/30 02:44:43;;;;;;;0.80;0.50;;;;;;;-143.84;94.38;45100.47;5108899;28;20451;-56
2023/10/30 02:47:10;;;;;;;0.80;0.50;;;;;;;-143.84;94.27;45090.97;5108445;28;20522;-56
2023/10/30 02:49:38;;;;;;;0.87;0.60;;;;;;;-143.84;94.16;45090.97;5108653;28;20536;-56
2023/10/30 02:52:06;;;;;;;0.80;0.50;;;;;;;-143.84;93.86;45111.91;5108471;28;20471;-56
2023/10/30 02:54:33;;;;;;;0.80;0.40;;;;;;;-143.84;93.68;45106.19;5108396;28;20530;-56
2023/10/30 02:57:00;;;;;;;0.80;0.43;;;;;;;-143.84;93.67;45089.06;5108531;28;20438;-56
2023/10/30 02:59:27;;;;;;;0.90;0.60;;;;;;;-143.84;93.22;45096.66;5112455;28;20461;-55
2023/10/30 03:01:56;;;;;;;1.00;0.70;;;;;;;-143.84;92.69;45098.56;5111696;28;20935;-55
2023/10/30 03:04:24;;;;;;;0.83;0.47;;;;;;;-143.84;92.27;45083.34;5111431;28;20485;-56
2023/10/30 03:06:51;;;;;;;0.90;0.60;;;;;;;-143.84;91.97;45090.97;5111976;28;20443;-56
2023/10/30 03:09:18;;;;;;;0.80;0.40;;;;;;;-143.84;91.64;45102.38;5112118;28;20485;-56
2023/10/30 03:11:45;;;;;;;1.00;0.90;;;;;;;-143.84;91.33;45098.56;5111987;28;20442;-56
2023/10/30 03:14:13;;;;;;;0.80;0.40;;;;;;;-143.84;90.33;45100.47;5112071;28;20435;-56
2023/10/30 03:16:40;;;;;;;0.90;0.50;;;;;;;-143.84;90.20;45089.06;5111996;28;20501;-56
2023/10/30 03:19:08;;;;;;;1.23;1.13;;;;;;;-143.84;89.95;45096.66;5111835;28;20462;-56
2023/10/30 03:21:36;;;;;;;0.80;0.40;;;;;;;-143.84;89.93;45081.44;5111997;28;20434;-55
2023/10/30 03:24:03;;;;;;;0.90;0.50;;;;;;;-143.84;89.72;45110.00;5112001;28;20450;-56
2023/10/30 03:26:30;;;;;;;0.80;0.40;;;;;;;-143.84;89.54;45104.28;5112270;28;20483;-60
2023/10/30 03:28:57;;;;;;;0.90;0.50;;;;;;;-143.84;89.58;45104.28;5111876;28;20996;-53
2023/10/30 03:31:24;;;;;;;0.80;0.60;;;;;;;-143.84;89.40;45089.06;5111824;28;20502;-52
2023/10/30 03:33:51;;;;;;;1.00;0.90;;;;;;;-143.84;89.20;45098.56;5111118;28;20458;-52
2023/10/30 03:36:24;;;;;;;0.80;0.40;;;;;;;-143.84;89.35;45092.88;5111699;28;20912;-51
2023/10/30 03:38:52;;;;;;;0.80;0.40;;;;;;;-143.84;89.45;45110.00;5111771;28;20449;-53
2023/10/30 03:41:19;;;;;;;0.80;0.40;;;;;;;-143.84;90.01;45117.63;5111318;28;20497;-52
2023/10/30 03:43:46;;;;;;;0.80;0.40;;;;;;;-143.84;89.45;45115.72;5111338;28;20437;-52
2023/10/30 03:46:13;;;;;;;1.23;1.13;;;;;;;-143.84;88.39;45104.28;5111556;28;21165;-52
2023/10/30 03:48:40;;;;;;;0.80;0.40;;;;;;;-143.84;86.82;45081.44;5111619;28;20438;-52
2023/10/30 03:51:07;;;;;;;0.90;0.60;;;;;;;-143.84;85.11;45127.13;5111213;28;20491;-52
2023/10/30 03:53:36;;;;;;;0.80;0.50;;;;;;;-143.84;84.49;45117.63;5110756;28;20957;-52
2023/10/30 03:56:06;;;;;;;0.80;0.50;;;;;;;-143.84;84.31;45123.34;5111374;28;20448;-52
2023/10/30 03:58:33;;;;;;;0.90;0.53;;;;;;;-143.84;84.00;45096.66;5111120;28;20457;-52
2023/10/30 04:01:06;;;;;;;0.80;0.40;;;;;;;-143.84;83.95;45092.88;5110713;28;20445;-52
2023/10/30 04:03:33;;;;;;;0.83;0.53;;;;;;;-143.84;83.80;45106.19;5110526;28;20457;-52
2023/10/30 04:06:02;;;;;;;0.80;0.40;;;;;;;-143.84;83.76;45104.28;5111147;28;20495;-52
2023/10/30 04:08:29;;;;;;;0.90;0.63;;;;;;;-143.84;83.93;45094.78;5110838;28;20442;-52
2023/10/30 04:10:58;;;;;;;0.80;0.40;;;;;;;-143.84;84.09;45089.06;5110336;28;20482;-52
2023/10/30 04:13:25;;;;;;;0.90;0.50;;;;;;;-143.84;85.06;45106.19;5111013;28;20447;-52
2023/10/30 04:15:52;;;;;;;0.80;0.40;;;;;;;-143.84;86.84;45125.22;5111019;28;20446;-52
2023/10/30 04:18:20;;;;;;;0.90;0.50;;;;;;;-143.84;88.38;45102.38;5110655;28;20440;-51
2023/10/30 04:20:47;;;;;;;0.90;0.80;;;;;;;-143.84;89.00;45115.72;5102515;28;20489;-55
2023/10/30 04:23:14;;;;;;;0.80;0.50;;;;;;;-143.84;89.41;45104.28;5090220;28;20825;-55
2023/10/30 04:25:41;;;;;;;0.80;0.50;;;;;;;-143.84;90.30;45102.38;5090547;28;20435;-55
2023/10/30 04:28:09;;;;;;;0.80;0.50;;;;;;;-143.84;91.46;45100.47;5090246;28;20497;-55
2023/10/30 04:30:37;;;;;;;0.80;0.40;;;;;;;-143.84;91.66;45089.06;5100614;28;20535;-55
2023/10/30 04:33:04;;;;;;;1.00;0.77;;;;;;;-143.84;93.06;45108.09;5109959;28;20433;-56
2023/10/30 04:35:31;;;;;;;6.10;5.13;;;;;;;-143.84;93.15;45083.34;5109990;28;20488;-55
2023/10/30 04:37:58;;;;;;;6.43;4.83;;;;;;;-143.84;91.93;45106.19;5109503;28;20455;-55
2023/10/30 04:40:25;;;;;;;2.23;1.80;;;;;;;-143.84;91.83;45090.97;5109127;28;20513;-55
2023/10/30 04:42:52;;;;;;;2.97;2.23;;;;;;;-143.84;91.58;45096.66;5109974;28;20982;-55
2023/10/30 04:45:21;;;;;;;2.17;1.97;;;;;;;-143.84;91.21;45108.09;5109777;28;20435;-55
2023/10/30 04:47:48;;;;;;;2.17;2.00;;;;;;;-143.84;90.29;45111.91;5109756;28;20457;-55
2023/10/30 04:50:16;;;;;;;2.40;2.20;;;;;;;-143.84;89.84;45115.72;5109126;28;20482;-55
2023/10/30 04:52:43;;;;;;;1.00;0.80;;;;;;;-143.84;89.61;45106.19;5109214;28;20458;-55
2023/10/30 04:55:11;;;;;;;0.90;0.70;;;;;;;-143.84;90.09;45098.56;5110027;28;20491;-55
2023/10/30 04:57:38;;;;;;;1.20;1.00;;;;;;;-143.84;90.46;45102.38;5110087;28;20541;-55
2023/10/30 05:00:07;;;;;;;0.90;0.50;;;;;;;-143.84;91.23;45092.88;5109785;28;20442;-55
2023/10/30 05:02:36;;;;;;;1.00;0.70;;;;;;;-143.84;91.96;45117.63;5109593;28;20446;-55
2023/10/30 05:05:03;;;;;;;0.80;0.50;;;;;;;-143.84;91.87;45117.63;5110158;28;20473;-55
2023/10/30 05:07:31;;;;;;;1.87;1.47;;;;;;;-143.84;92.05;45111.91;5109793;28;20940;-55
2023/10/30 05:09:58;;;;;;;0.93;0.60;;;;;;;-143.84;92.14;45100.47;5109981;28;20478;-55
2023/10/30 05:12:25;;;;;;;0.80;0.40;;;;;;;-143.84;93.25;45108.09;5109827;28;20439;-56
2023/10/30 05:14:52;;;;;;;1.00;0.60;;;;;;;-143.84;94.59;45104.28;5109849;28;20450;-55
2023/10/30 05:17:19;;;;;;;1.00;0.60;;;;;;;-143.84;95.13;45092.88;5109580;28;20443;-55
2023/10/30 05:19:47;;;;;;;0.80;0.50;;;;;;;-143.84;95.51;45106.19;5109788;28;20435;-55
2023/10/30 05:22:14;;;;;;;0.80;0.47;;;;;;;-143.84;96.00;45094.78;5109861;28;20447;-55
2023/10/30 05:24:41;;;;;;;1.00;0.80;;;;;;;-143.84;96.87;45068.13;5109153;28;20439;-55
2023/10/30 05:27:09;;;;;;;0.90;0.60;;;;;;;-143.84;97.25;45092.88;5109682;28;20488;-56
2023/10/30 05:29:36;;;;;;;1.83;1.40;;;;;;;-143.84;97.53;45092.88;5109527;28;20435;-60
2023/10/30 05:32:06;;;;;;;1.30;1.20;;;;;;;-143.84;97.38;45087.16;5109390;28;21052;-60
2023/10/30 05:34:33;;;;;;;1.50;1.40;;;;;;;-143.84;97.08;45110.00;5115296;27;20481;-60
2023/10/30 05:37:04;;;;;;;1.20;1.10;;;;;;;-143.84;96.71;45104.28;5130176;27;20434;-60
2023/10/30 05:39:31;;;;;;;2.00;0.80;;;;;;;-143.84;97.01;45121.44;5129850;27;20453;-60
2023/10/30 05:41:59;;;;;;;4.30;0.67;;;;;;;-143.84;97.14;45119.53;5129692;27;20453;-60
2023/10/30 05:44:26;;;;;;;1.00;0.63;;;;;;;-143.84;97.36;45110.00;5129663;27;20502;-60
2023/10/30 05:46:53;;;;;;;0.80;0.50;;;;;;;-143.84;97.26;45092.88;5129771;27;20434;-60
2023/10/30 05:49:20;;;;;;;0.80;0.40;;;;;;;-143.84;96.86;45106.19;5129867;27;20438;-60
2023/10/30 05:51:47;;;;;;;0.90;0.60;;;;;;;-143.84;96.67;45079.53;5129484;27;20531;-60
2023/10/30 05:54:15;;;;;;;0.90;0.63;;;;;;;-143.84;96.22;45106.19;5129669;27;21231;-60
2023/10/30 05:56:43;;;;;;;0.90;0.60;;;;;;;-143.84;96.44;45079.53;5129322;27;20494;-60
2023/10/30 05:59:10;;;;;;;0.83;0.57;;;;;;;-143.84;96.87;45098.56;5129461;27;20434;-60
2023/10/30 06:01:37;;;;;;;0.87;0.60;;;;;;;-143.84;97.21;45090.97;5129821;27;21006;-60
2023/10/30 06:04:04;;;;;;;0.80;0.50;;;;;;;-143.84;97.09;45083.34;5129243;28;20446;-60
2023/10/30 06:06:32;;;;;;;0.97;0.87;;;;;;;-143.84;96.44;45075.72;5128998;28;20442;-60
2023/10/30 06:08:59;;;;;;;0.90;0.40;;;;;;;-143.84;95.77;45090.97;5128754;28;20446;-60
2023/10/30 06:11:29;;;;;;;0.90;0.57;;;;;;;-143.84;95.73;45077.63;5129069;28;20481;-60
2023/10/30 06:13:56;;;;;;;1.00;0.70;;;;;;;-143.84;95.15;45068.13;5129120;28;20435;-56
2023/10/30 06:16:23;;;;;;;0.80;0.30;;;;;;;-143.84;94.00;45060.50;5129164;28;20438;-56
2023/10/30 06:18:50;;;;;;;0.90;0.60;;;;;;;-143.84;93.29;45054.78;5129224;28;20943;-56
2023/10/30 06:21:17;;;;;;;0.90;0.50;;;;;;;-143.84;92.77;45081.44;5128920;28;20435;-56
2023/10/30 06:23:44;;;;;;;1.03;0.63;;;;;;;-143.84;91.91;45073.81;5128851;27;20438;-56
2023/10/30 06:26:12;;;;;;;0.90;0.50;;;;;;;-143.84;90.32;45062.41;5128850;28;20996;-56
2023/10/30 06:28:42;;;;;;;0.80;0.50;;;;;;;-143.84;88.70;45056.69;5129295;28;21158;-56
2023/10/30 06:31:14;;;;;;;0.90;0.53;;;;;;;-143.84;87.25;45060.50;5128849;28;20998;-56
2023/10/30 06:33:42;;;;;;;0.90;0.80;;;;;;;-143.84;86.04;45050.97;5132224;27;20486;-56
2023/10/30 06:36:09;;;;;;;0.90;0.50;;;;;;;-143.84;85.96;45049.06;5133143;27;20534;-56
2023/10/30 06:38:37;;;;;;;0.90;0.47;;;;;;;-143.84;85.69;45062.41;5133279;27;20509;-56
2023/10/30 06:41:05;;;;;;;0.90;0.60;;;;;;;-143.84;84.77;45049.06;5132943;27;20444;-56
2023/10/30 06:43:33;;;;;;;0.80;0.50;;;;;;;-143.84;83.08;45049.06;5133378;27;20524;-56
2023/10/30 06:46:02;;;;;;;1.20;0.57;;;;;;;-143.84;82.24;45039.53;5133100;27;20437;-56
2023/10/30 06:48:29;;;;;;;0.90;0.47;;;;;;;-143.84;81.56;45062.41;5117444;27;20462;-56
2023/10/30 06:50:56;;;;;;;0.90;0.53;;;;;;;-143.84;81.36;45050.97;5111332;28;20486;-56
2023/10/30 06:53:24;;;;;;;0.90;0.60;;;;;;;-143.84;80.10;45045.25;5111553;28;20878;-56
2023/10/30 06:55:52;;;;;;;0.80;0.43;;;;;;;-143.84;79.08;45014.78;5111464;28;20447;-55
2023/10/30 06:58:21;;;;;;;1.10;0.80;;;;;;;-143.84;77.87;45041.44;5111625;28;20438;-56
2023/10/30 07:00:48;;;;;;;0.80;0.40;;;;;;;-143.84;77.16;45047.16;5110017;28;20439;-56
2023/10/30 07:03:17;;;;;;;0.90;0.50;;;;;;;-143.84;75.02;45018.59;5109385;28;20442;-56
2023/10/30 07:05:44;;;;;;;0.90;0.40;;;;;;;-143.84;73.70;45031.94;5111416;28;20454;-56
2023/10/30 07:08:11;;;;;;;2.50;0.60;;;;;;;-143.84;72.88;45007.19;5110947;28;21097;-56
2023/10/30 07:10:38;;;;;;;1.20;0.60;;;;;;;-143.84;71.75;45016.69;5111490;28;20551;-56
2023/10/30 07:13:05;;;;;;;0.80;0.40;;;;;;;-143.84;71.54;45028.13;5111317;28;20497;-56
2023/10/30 07:15:32;;;;;;;0.90;0.40;;;;;;;-143.84;69.69;45047.16;5110996;28;20512;-55
2023/10/30 07:17:59;;;;;;;0.90;0.60;;;;;;;-143.84;70.20;45007.19;5110807;28;20450;-56
2023/10/30 07:20:28;;;;;;;0.80;0.40;;;;;;;-143.84;66.57;45030.03;5111076;28;21076;-56
2023/10/30 07:22:55;;;;;;;0.80;0.43;;;;;;;-143.84;66.87;45003.38;5111076;28;20458;-55
2023/10/30 07:25:22;;;;;;;0.90;0.50;;;;;;;-143.84;64.23;45020.50;5111309;28;20557;-55
2023/10/30 07:27:49;;;;;;;1.57;1.27;;;;;;;-143.84;62.03;45014.78;5111002;28;20447;-56
2023/10/30 07:30:17;;;;;;;0.80;0.40;;;;;;;-143.84;61.68;45022.41;5110862;28;20435;-55
2023/10/30 07:32:45;;;;;;;0.80;0.40;;;;;;;-143.84;58.99;45026.22;5110736;28;20447;-55
2023/10/30 07:35:12;;;;;;;0.90;0.40;;;;;;;-143.84;57.40;45024.31;5110328;28;21022;-56
2023/10/30 07:37:40;;;;;;;0.80;0.40;;;;;;;-143.84;56.07;45024.31;5109013;28;20455;-55
2023/10/30 07:40:08;;;;;;;1.00;0.70;;;;;;;-143.84;52.45;44993.84;5108115;28;20451;-56
2023/10/30 07:42:36;;;;;;;0.80;0.40;;;;;;;-143.84;51.75;45014.78;5099368;28;20864;-56
2023/10/30 07:45:05;;;;;;;0.90;0.47;;;;;;;-143.84;51.28;44993.84;5097433;28;20987;-56
2023/10/30 07:47:32;;;;;;;1.23;0.60;;;;;;;-143.84;50.72;44991.94;5109090;27;20447;-56
2023/10/30 07:50:01;;;;;;;0.90;0.50;;;;;;;-143.84;49.63;44991.94;5095372;28;20440;-56
2023/10/30 07:52:28;;;;;;;0.80;0.40;;;;;;;-143.84;50.44;44988.13;5095660;28;21043;-55
2023/10/30 07:54:57;;;;;;;1.47;1.13;;;;;;;-143.84;49.81;45003.38;5099358;28;21308;-55
2023/10/30 07:57:24;;;;;;;0.87;0.60;;;;;;;-143.84;49.51;44984.31;5097402;28;20440;-55
2023/10/30 07:59:51;;;;;;;0.90;0.60;;;;;;;-143.84;49.97;44982.41;5100103;28;20508;-55
2023/10/30 08:02:18;;;;;;;2.90;0.70;;;;;;;-143.84;47.38;44988.13;5088455;28;20447;-55
2023/10/30 08:04:45;;;;;;;0.80;0.40;;;;;;;-143.84;48.25;45001.47;5088335;28;20435;-55
2023/10/30 08:07:12;;;;;;;0.90;0.50;;;;;;;-143.84;48.21;44974.81;5091798;28;20443;-55
2023/10/30 08:09:39;;;;;;;0.90;0.47;;;;;;;-143.84;45.33;44986.22;5092961;28;20497;-55
2023/10/30 08:12:08;;;;;;;0.90;0.50;;;;;;;-143.84;44.65;44986.22;5092964;28;20475;-55
2023/10/30 08:14:35;;;;;;;1.63;0.50;;;;;;;-143.84;45.50;44999.56;5094129;28;20439;-55
2023/10/30 08:17:03;;;;;;;0.90;0.63;;;;;;;-143.84;45.95;44982.41;5098459;28;20444;-55
2023/10/30 08:19:30;;;;;;;0.90;0.50;;;;;;;-143.84;45.20;44976.72;5095158;28;20447;-55
2023/10/30 08:21:57;;;;;;;0.90;0.50;;;;;;;-143.84;45.26;44986.22;5095792;28;20463;-55
2023/10/30 08:24:24;;;;;;;1.00;0.60;;;;;;;-143.84;44.78;44986.22;5095114;28;20443;-55
2023/10/30 08:26:51;;;;;;;0.90;0.60;;;;;;;-143.84;45.07;45001.47;5088251;28;20472;-55
2023/10/30 08:29:20;;;;;;;0.80;0.40;;;;;;;-143.84;45.92;44980.53;5099270;28;20957;-55
2023/10/30 08:31:47;;;;;;;0.80;0.40;;;;;;;-143.84;44.98;45001.47;5088834;28;20486;-55
2023/10/30 08:34:14;;;;;;;0.93;0.57;;;;;;;-143.84;45.96;44995.75;5092818;28;20486;-55
2023/10/30 08:36:41;;;;;;;0.80;0.40;;;;;;;-143.84;45.39;45020.50;5103186;28;20431;-55
2023/10/30 08:39:09;;;;;;;0.80;0.30;;;;;;;-143.84;47.45;44976.72;5103728;28;20458;-55
2023/10/30 08:41:36;;;;;;;0.90;0.57;;;;;;;-143.84;45.71;44993.84;5102586;28;20438;-55
2023/10/30 08:44:04;;;;;;;0.90;0.50;;;;;;;-143.84;45.71;44971.00;5104060;28;20438;-55
2023/10/30 08:46:33;;;;;;;0.80;0.40;;;;;;;-143.84;45.14;44982.41;5103544;28;20446;-55
2023/10/30 08:49:00;;;;;;;0.80;0.30;;;;;;;-143.84;46.35;44978.63;5099015;28;20447;-60
2023/10/30 08:51:27;;;;;;;0.80;0.40;;;;;;;-143.84;45.58;44984.31;5103606;28;20479;-60
2023/10/30 08:53:55;;;;;;;1.10;0.70;;;;;;;-143.84;46.54;45001.47;5103717;27;20442;-60
2023/10/30 08:56:22;;;;;;;1.00;0.50;;;;;;;-143.84;47.57;44980.53;5103405;28;20501;-60
2023/10/30 08:58:49;;;;;;;0.97;0.40;;;;;;;-143.84;47.63;44976.72;5102417;28;20439;-60
2023/10/30 09:01:16;;;;;;;0.80;0.40;;;;;;;-143.84;47.57;44980.53;5102750;28;20496;-61
2023/10/30 09:03:45;;;;;;;0.80;0.40;;;;;;;-143.84;47.99;44991.94;5103293;28;20435;-61
2023/10/30 09:06:12;;;;;;;0.90;0.47;;;;;;;-143.84;45.92;44978.63;5102893;28;20446;-60
2023/10/30 09:08:39;;;;;;;0.90;0.50;;;;;;;-143.84;46.93;44986.22;5102422;28;20791;-60
2023/10/30 09:11:06;;;;;;;0.90;0.50;;;;;;;-143.84;47.18;44986.22;5102151;28;20864;-61
2023/10/30 09:13:33;;;;;;;1.00;0.40;;;;;;;-143.84;45.87;44980.53;5103347;28;20435;-60
2023/10/30 09:16:00;;;;;;;0.80;0.40;;;;;;;-143.84;44.56;44969.09;5102410;28;20443;-60
2023/10/30 09:18:28;;;;;;;0.80;0.40;;;;;;;-143.84;44.81;44965.28;5102321;28;20477;-61
2023/10/30 09:20:56;;;;;;;0.80;0.40;;;;;;;-143.84;44.73;44961.47;5103112;28;20516;-61
2023/10/30 09:23:23;;;;;;;0.80;0.40;;;;;;;-143.84;43.87;44976.72;5102894;28;20462;-61
2023/10/30 09:25:50;;;;;;;0.80;0.40;;;;;;;-143.84;44.48;44971.00;5103166;28;20882;-61
2023/10/30 09:28:17;;;;;;;0.80;0.40;;;;;;;-143.84;43.48;44980.53;5101732;27;20829;-61
2023/10/30 09:30:44;;;;;;;1.33;0.70;;;;;;;-143.84;43.92;44957.66;5102451;28;20455;-61
2023/10/30 09:33:12;;;;;;;0.80;0.40;;;;;;;-143.84;43.73;44990.03;5104276;28;20481;-60
2023/10/30 09:35:39;;;;;;;0.80;0.40;;;;;;;-143.84;44.70;44976.72;5109129;28;20485;-61
2023/10/30 09:38:07;;;;;;;2.20;0.60;;;;;;;-143.84;45.10;44991.94;5109442;28;20857;-60
2023/10/30 09:40:34;;;;;;;0.80;0.43;;;;;;;-143.84;45.10;44982.41;5109526;28;20875;-61
2023/10/30 09:43:04;;;;;;;1.00;0.70;;;;;;;-143.84;45.22;44991.94;5109410;28;20442;-61
2023/10/30 09:45:31;;;;;;;1.00;0.50;;;;;;;-143.84;45.22;44976.72;5107213;28;20542;-60
2023/10/30 09:47:58;;;;;;;0.80;0.40;;;;;;;-143.84;44.42;44984.31;5109166;28;20505;-60
2023/10/30 09:50:26;;;;;;;1.60;1.50;;;;;;;-143.84;45.22;44969.09;5108935;28;20853;-61
2023/10/30 09:52:54;;;;;;;0.80;0.40;;;;;;;-143.84;44.19;44980.53;5108440;28;20471;-60
2023/10/30 09:55:24;;;;;;;0.97;0.40;;;;;;;-143.84;44.22;44984.31;5100471;28;20496;-60
2023/10/30 09:57:53;;;;;;;0.80;0.40;;;;;;;-143.84;43.12;44974.81;5102387;28;20455;-60
2023/10/30 10:00:21;;;;;;;0.80;0.40;;;;;;;-143.84;44.21;44984.31;5102233;28;20446;-60
2023/10/30 10:02:48;;;;;;;0.87;0.40;;;;;;;-143.84;45.47;44997.66;5102818;28;20458;-60
2023/10/30 10:05:16;;;;;;;0.80;0.40;;;;;;;-143.84;44.44;44986.22;5101913;28;20444;-60
2023/10/30 10:07:44;;;;;;;0.90;0.40;;;;;;;-143.84;44.31;44980.53;5102054;28;20453;-60
2023/10/30 10:10:12;;;;;;;0.80;0.40;;;;;;;-143.84;46.14;44982.41;5102112;28;20496;-60
2023/10/30 10:12:40;;;;;;;1.20;0.80;;;;;;;-143.84;46.01;45014.78;5101509;28;20483;-60
2023/10/30 10:15:08;;;;;;;0.80;0.30;;;;;;;-143.84;45.64;44997.66;5099758;28;20443;-60
2023/10/30 10:17:42;;;;;;;0.80;0.43;;;;;;;-143.84;47.02;44999.56;5101748;28;20442;-60
2023/10/30 10:20:10;;;;;;;0.80;0.40;;;;;;;-143.84;47.85;44986.22;5101218;28;20449;-60
2023/10/30 10:22:38;;;;;;;0.80;0.40;;;;;;;-143.84;47.66;45001.47;5101015;28;20443;-60
2023/10/30 10:25:07;;;;;;;0.80;0.40;;;;;;;-143.84;47.56;45020.50;5099642;28;20439;-60
2023/10/30 10:27:35;;;;;;;0.80;0.40;;;;;;;-143.84;48.54;44995.75;5100708;28;20446;-60
2023/10/30 10:30:06;;;;;;;1.17;0.90;;;;;;;-143.84;50.36;45041.44;5101503;28;20492;-60
2023/10/30 10:32:33;;;;;;;0.90;0.50;;;;;;;-143.84;51.19;45010.97;5101585;28;20836;-60
2023/10/30 10:35:02;;;;;;;1.50;0.70;;;;;;;-143.84;51.15;45022.41;5099984;28;20540;-60
2023/10/30 10:37:30;;;;;;;0.90;0.40;;;;;;;-143.84;50.37;45026.22;5102126;28;20820;-60
2023/10/30 10:39:57;;;;;;;0.80;0.40;;;;;;;-143.84;51.18;45024.31;5100326;28;20536;-60
2023/10/30 10:42:25;;;;;;;0.80;0.47;;;;;;;-143.84;49.99;44988.13;5095424;28;20517;-55
2023/10/30 10:44:54;;;;;;;1.37;0.70;;;;;;;-143.84;48.17;44974.81;5099900;28;20521;-55
2023/10/30 10:47:24;;;;;;;0.90;0.60;;;;;;;-143.84;48.82;45005.28;5101347;28;20988;-55
2023/10/30 10:49:51;;;;;;;0.80;0.40;;;;;;;-143.84;51.49;44976.72;5100975;28;20517;-55
2023/10/30 10:52:20;;;;;;;0.90;0.80;;;;;;;-143.84;47.66;44976.72;5100744;28;20515;-55
2023/10/30 10:54:53;;;;;;;0.80;0.50;;;;;;;-143.84;48.65;45007.19;5101238;28;20439;-55
2023/10/30 10:57:22;;;;;;;2.13;0.57;;;;;;;-143.84;48.23;44982.41;5101730;28;20454;-55
2023/10/30 10:59:55;;;;;;;0.80;0.40;;;;;;;-143.84;49.56;45007.19;5102436;28;21613;-55
2023/10/30 11:02:30;;;;;;;1.47;0.80;;;;;;;-143.84;50.26;44999.56;5099967;28;20446;-55
2023/10/30 11:04:58;;;;;;;0.90;0.50;;;;;;;-143.84;50.17;45024.31;5099382;28;20447;-55
2023/10/30 11:07:31;;;;;;;0.90;0.50;;;;;;;-143.84;49.46;45010.97;5100831;28;20907;-55
2023/10/30 11:10:04;;;;;;;0.90;0.50;;;;;;;-143.84;53.35;44993.84;5100293;28;20928;-55
2023/10/30 11:12:57;;;;;;;0.80;0.40;;;;;;;-143.84;55.91;44988.13;5100038;28;20569;-55
2023/10/30 11:15:34;;;;;;;1.43;0.77;;;;;;;-143.84;56.31;45022.41;5092071;28;20797;-54
2023/10/30 11:18:21;;;;;;;0.90;0.50;;;;;;;-143.84;57.91;45009.09;5098707;28;20927;-54
2023/10/30 11:20:54;;;;;;;0.90;0.67;;;;;;;-143.84;58.84;45010.97;5106032;28;20450;-55